Time;durP1;ratioP1;P1;durP2;ratioP2;P2;SDS_P1;SDS_P2;PMS_P1;PMS_P2;Temp;Humidity;BMP_temperature;BMP_pressure;BME280_temperature;BME280_humidity;BME280_pressure;Samples;Min_cycle;Max_cycle;Signal;HPM_P1;HPM_P2
2023/08/03 00:00:31;;;;;;;2.53;2.33;;;;;;;13.32;nan;95671.31;4995365;28;20208;-63
2023/08/03 00:02:59;;;;;;;3.43;3.23;;;;;;;13.26;nan;95672.25;4989658;28;20235;-63
2023/08/03 00:05:27;;;;;;;5.30;4.90;;;;;;;13.18;nan;95673.44;4997242;28;20609;-63
2023/08/03 00:07:55;;;;;;;3.60;2.50;;;;;;;13.15;nan;95671.25;4937688;28;20712;-62
2023/08/03 00:10:23;;;;;;;2.23;2.03;;;;;;;13.17;nan;95691.22;4997068;28;20215;-60
2023/08/03 00:12:51;;;;;;;2.13;2.00;;;;;;;13.16;nan;95683.50;4890505;28;21316;-60
2023/08/03 00:15:19;;;;;;;2.30;2.17;;;;;;;13.10;nan;95676.47;4997526;28;20691;-62
2023/08/03 00:17:48;;;;;;;2.37;2.20;;;;;;;13.10;nan;95695.09;4992203;28;20236;-62
2023/08/03 00:20:18;;;;;;;2.00;1.87;;;;;;;13.08;nan;95687.34;4993139;28;20602;-61
2023/08/03 00:22:46;;;;;;;2.13;1.93;;;;;;;13.09;nan;95706.78;4992879;28;20227;-62
2023/08/03 00:25:14;;;;;;;4.50;2.43;;;;;;;13.06;nan;95704.56;4996179;28;20200;-61
2023/08/03 00:27:42;;;;;;;1.90;1.80;;;;;;;13.03;nan;95703.19;4991839;28;20355;-63
2023/08/03 00:30:10;;;;;;;3.03;2.40;;;;;;;13.05;nan;95713.59;4992249;28;20213;-61
2023/08/03 00:32:38;;;;;;;4.10;3.20;;;;;;;13.02;nan;95706.91;4987299;28;20228;-63
2023/08/03 00:35:09;;;;;;;2.37;2.17;;;;;;;13.00;nan;95696.50;4992326;28;20853;-61
2023/08/03 00:37:38;;;;;;;2.77;2.27;;;;;;;12.95;nan;95720.31;4989823;28;20209;-62
2023/08/03 00:40:08;;;;;;;2.57;2.37;;;;;;;13.01;nan;95742.50;4989046;28;20213;-64
2023/08/03 00:42:35;;;;;;;1.93;1.83;;;;;;;13.00;nan;95727.59;4890426;28;21591;-61
2023/08/03 00:45:03;;;;;;;2.50;2.30;;;;;;;13.06;nan;95736.47;4996223;28;20765;-63
2023/08/03 00:47:31;;;;;;;2.63;2.43;;;;;;;13.11;nan;95718.78;4992629;28;20232;-61
2023/08/03 00:49:59;;;;;;;2.87;2.67;;;;;;;13.18;nan;95719.44;4997810;28;20217;-60
2023/08/03 00:52:28;;;;;;;3.60;2.37;;;;;;;13.23;nan;95723.25;4990860;28;21246;-61
2023/08/03 00:54:56;;;;;;;2.77;2.37;;;;;;;13.26;nan;95731.56;4995124;28;20229;-59
2023/08/03 00:57:24;;;;;;;2.23;2.13;;;;;;;13.23;nan;95713.41;4992702;28;20213;-64
2023/08/03 00:59:51;;;;;;;2.53;2.37;;;;;;;13.21;nan;95717.34;4997543;28;20209;-61
2023/08/03 01:02:19;;;;;;;3.17;2.97;;;;;;;13.25;nan;95721.97;4991192;28;20883;-63
2023/08/03 01:04:47;;;;;;;2.50;2.30;;;;;;;13.24;nan;95723.00;4995558;28;20205;-61
2023/08/03 01:07:14;;;;;;;2.57;2.37;;;;;;;13.25;nan;95723.81;4992865;28;20228;-64
2023/08/03 01:09:43;;;;;;;2.97;2.77;;;;;;;13.24;nan;95732.84;4991136;28;20600;-63
2023/08/03 01:12:11;;;;;;;3.63;2.60;;;;;;;13.22;nan;95734.91;4997892;28;20284;-65
2023/08/03 01:14:39;;;;;;;3.57;2.43;;;;;;;13.17;nan;95735.66;4998250;28;20198;-62
2023/08/03 01:17:07;;;;;;;2.90;2.70;;;;;;;13.07;nan;95725.59;4944930;28;20787;-65
2023/08/03 01:19:35;;;;;;;3.13;2.77;;;;;;;13.11;nan;95742.69;4959220;28;20581;-63
2023/08/03 01:22:03;;;;;;;2.50;2.40;;;;;;;13.11;nan;95744.56;4987674;28;20259;-62
2023/08/03 01:24:32;;;;;;;2.73;2.53;;;;;;;13.06;nan;95747.09;4999264;28;20205;-62
2023/08/03 01:27:00;;;;;;;2.40;2.30;;;;;;;13.06;nan;95733.81;4932471;28;20225;-63
2023/08/03 01:29:28;;;;;;;3.17;2.87;;;;;;;13.06;nan;95737.28;4995278;28;20213;-62
2023/08/03 01:31:58;;;;;;;2.47;2.27;;;;;;;13.03;nan;95727.13;4994451;28;20232;-63
2023/08/03 01:34:26;;;;;;;2.83;2.63;;;;;;;13.03;nan;95730.56;4995891;28;20205;-62
2023/08/03 01:36:54;;;;;;;2.90;2.73;;;;;;;12.98;nan;95733.13;4993317;28;20201;-63
2023/08/03 01:39:24;;;;;;;2.23;2.10;;;;;;;12.99;nan;95726.78;4997949;28;20623;-64
2023/08/03 01:41:53;;;;;;;3.10;2.90;;;;;;;12.96;nan;95727.25;4995040;28;20228;-63
2023/08/03 01:44:24;;;;;;;5.33;3.20;;;;;;;12.95;nan;95720.31;4998650;28;20354;-62
2023/08/03 01:46:53;;;;;;;2.27;2.17;;;;;;;12.93;nan;95725.06;4989501;28;20896;-61
2023/08/03 01:49:21;;;;;;;3.13;2.93;;;;;;;12.89;nan;95729.22;5000027;28;20223;-60
2023/08/03 01:51:49;;;;;;;3.03;2.83;;;;;;;12.90;nan;95730.06;4874826;28;20336;-63
2023/08/03 01:54:17;;;;;;;3.27;2.40;;;;;;;12.87;nan;95720.69;4927167;28;20639;-64
2023/08/03 01:56:45;;;;;;;2.73;2.53;;;;;;;12.83;nan;95716.88;5000809;28;20653;-64
2023/08/03 01:59:14;;;;;;;2.60;2.50;;;;;;;12.76;nan;95711.69;4993343;28;21098;-64
2023/08/03 02:01:42;;;;;;;3.17;2.47;;;;;;;12.74;nan;95703.16;4997474;28;20241;-63
2023/08/03 02:04:10;;;;;;;2.73;2.53;;;;;;;12.70;nan;95705.47;4992393;28;20221;-63
2023/08/03 02:06:38;;;;;;;2.63;2.50;;;;;;;12.67;nan;95708.56;4995626;28;20233;-63
2023/08/03 02:09:05;;;;;;;2.80;2.60;;;;;;;12.68;nan;95717.38;4991015;28;20205;-64
2023/08/03 02:11:34;;;;;;;6.80;2.67;;;;;;;12.69;nan;95717.16;4994482;28;20225;-62
2023/08/03 02:14:02;;;;;;;3.40;2.83;;;;;;;12.71;nan;95717.72;4991642;28;20688;-62
2023/08/03 02:16:32;;;;;;;3.00;2.77;;;;;;;12.70;nan;95712.63;4999994;28;20193;-63
2023/08/03 02:18:59;;;;;;;2.17;2.07;;;;;;;12.67;nan;95718.41;4936912;28;20816;-62
2023/08/03 02:21:27;;;;;;;3.43;3.03;;;;;;;12.65;nan;95709.88;4995558;28;20229;-61
2023/08/03 02:23:55;;;;;;;4.10;2.97;;;;;;;12.58;nan;95709.97;4870639;28;20217;-62
2023/08/03 02:26:22;;;;;;;2.77;2.47;;;;;;;12.54;nan;95709.66;4993221;28;20567;-63
2023/08/03 02:28:50;;;;;;;3.83;2.53;;;;;;;12.53;nan;95712.53;4992893;28;20215;-63
2023/08/03 02:31:18;;;;;;;5.03;2.60;;;;;;;12.53;nan;95716.00;4993361;28;20553;-63
2023/08/03 02:33:47;;;;;;;5.67;2.33;;;;;;;12.52;nan;95711.75;4988761;28;20699;-63
2023/08/03 02:36:14;;;;;;;2.30;2.20;;;;;;;12.58;nan;95709.97;4997364;28;20197;-63
2023/08/03 02:38:42;;;;;;;2.87;2.67;;;;;;;12.56;nan;95714.72;4930446;28;20222;-62
2023/08/03 02:41:10;;;;;;;2.70;2.50;;;;;;;12.55;nan;95723.72;4927370;28;20727;-60
2023/08/03 02:43:37;;;;;;;3.20;3.00;;;;;;;12.56;nan;95736.78;4996574;28;20220;-63
2023/08/03 02:46:05;;;;;;;2.83;2.63;;;;;;;12.62;nan;95747.53;4993230;28;20212;-63
2023/08/03 02:48:33;;;;;;;3.33;2.67;;;;;;;12.61;nan;95756.53;4995283;28;20255;-63
2023/08/03 02:51:02;;;;;;;3.27;3.07;;;;;;;12.55;nan;95758.28;4991450;28;20209;-63
2023/08/03 02:53:30;;;;;;;3.07;2.87;;;;;;;12.58;nan;95752.50;4997578;28;20220;-61
2023/08/03 02:55:57;;;;;;;2.87;2.67;;;;;;;12.64;nan;95738.28;4869639;28;20253;-62
2023/08/03 02:58:26;;;;;;;3.37;3.07;;;;;;;12.63;nan;95739.31;4996231;28;20611;-60
2023/08/03 03:00:53;;;;;;;2.93;2.73;;;;;;;12.66;nan;95724.78;4992416;28;20205;-61
2023/08/03 03:03:21;;;;;;;4.03;3.63;;;;;;;12.55;nan;95716.59;4995379;28;20255;-62
2023/08/03 03:05:49;;;;;;;4.60;3.13;;;;;;;12.49;nan;95701.56;4992132;28;20232;-61
2023/08/03 03:08:18;;;;;;;2.90;2.80;;;;;;;12.50;nan;95715.66;4993677;28;20242;-60
2023/08/03 03:10:45;;;;;;;4.30;3.93;;;;;;;12.48;nan;95709.78;4994634;28;20208;-61
2023/08/03 03:13:13;;;;;;;5.00;3.50;;;;;;;12.44;nan;95701.44;4995712;28;20232;-61
2023/08/03 03:15:40;;;;;;;3.40;3.20;;;;;;;12.43;nan;95679.41;4994402;28;20211;-61
2023/08/03 03:18:08;;;;;;;4.20;3.23;;;;;;;12.38;nan;95695.22;4993944;28;21968;-60
2023/08/03 03:20:36;;;;;;;3.30;3.10;;;;;;;12.44;nan;95712.91;4990979;28;20201;-63
2023/08/03 03:23:04;;;;;;;2.97;2.77;;;;;;;12.47;nan;95719.56;4991714;28;20225;-61
2023/08/03 03:25:33;;;;;;;2.63;2.43;;;;;;;12.47;nan;95721.44;4998612;28;20204;-62
2023/08/03 03:28:04;;;;;;;3.40;2.63;;;;;;;12.53;nan;95725.81;4993768;28;20228;-59
2023/08/03 03:30:32;;;;;;;4.73;3.43;;;;;;;12.54;nan;95730.09;4869970;28;20745;-62
2023/08/03 03:33:00;;;;;;;3.37;3.07;;;;;;;12.55;nan;95732.53;4994656;28;20798;-62
2023/08/03 03:35:27;;;;;;;4.97;2.90;;;;;;;12.56;nan;95734.13;4990695;28;20988;-62
2023/08/03 03:37:55;;;;;;;2.97;2.77;;;;;;;12.52;nan;95735.66;4997430;28;20204;-63
2023/08/03 03:40:23;;;;;;;3.43;3.13;;;;;;;12.45;nan;95742.91;4990407;28;20217;-62
2023/08/03 03:42:52;;;;;;;3.83;3.10;;;;;;;12.45;nan;95732.28;4996051;28;20228;-63
2023/08/03 03:45:19;;;;;;;3.50;3.20;;;;;;;12.44;nan;95739.44;4995565;28;20209;-63
2023/08/03 03:47:47;;;;;;;3.83;3.33;;;;;;;12.42;nan;95735.41;4991900;28;20716;-63
2023/08/03 03:50:15;;;;;;;5.23;3.07;;;;;;;12.43;nan;95739.66;4992861;28;20221;-63
2023/08/03 03:52:42;;;;;;;3.97;3.67;;;;;;;12.43;nan;95743.16;4995651;28;20725;-63
2023/08/03 03:55:10;;;;;;;3.50;3.30;;;;;;;12.42;nan;95749.50;4992303;28;20223;-63
2023/08/03 03:57:38;;;;;;;4.80;3.63;;;;;;;12.42;nan;95744.19;4997894;28;20206;-62
2023/08/03 04:00:09;;;;;;;3.90;3.00;;;;;;;12.37;nan;95757.34;4872030;28;21623;-63
2023/08/03 04:02:36;;;;;;;6.83;3.07;;;;;;;12.37;nan;95762.66;4992804;28;20239;-62
2023/08/03 04:05:04;;;;;;;4.20;3.77;;;;;;;12.34;nan;95763.13;4991763;28;20221;-62
2023/08/03 04:07:32;;;;;;;5.30;3.47;;;;;;;12.31;nan;95771.53;4996335;28;20235;-62
2023/08/03 04:10:00;;;;;;;4.07;3.37;;;;;;;12.36;nan;95776.16;4992900;28;20837;-63
2023/08/03 04:12:27;;;;;;;3.50;3.30;;;;;;;12.44;nan;95784.59;4994212;28;20233;-63
2023/08/03 04:14:55;;;;;;;5.00;3.70;;;;;;;12.56;nan;95781.13;4993225;28;20201;-61
2023/08/03 04:17:24;;;;;;;3.83;3.30;;;;;;;12.60;nan;95784.94;4991671;28;20209;-64
2023/08/03 04:19:52;;;;;;;5.03;3.50;;;;;;;12.66;nan;95781.38;4992215;28;20219;-62
2023/08/03 04:22:20;;;;;;;5.77;2.90;;;;;;;12.74;nan;95775.72;4991547;28;20320;-62
2023/08/03 04:24:47;;;;;;;4.33;4.03;;;;;;;12.78;nan;95783.22;4995264;28;20200;-64
2023/08/03 04:27:15;;;;;;;4.17;3.77;;;;;;;12.83;nan;95781.47;4989022;28;20593;-62
2023/08/03 04:29:42;;;;;;;3.57;3.30;;;;;;;12.89;nan;95795.69;4994726;28;20633;-62
2023/08/03 04:32:10;;;;;;;3.93;3.53;;;;;;;12.92;nan;95803.19;4994710;28;20221;-62
2023/08/03 04:34:39;;;;;;;3.77;3.03;;;;;;;12.98;nan;95796.94;4934478;28;20448;-63
2023/08/03 04:37:07;;;;;;;3.27;3.07;;;;;;;13.06;nan;95811.75;4945206;28;20208;-62
2023/08/03 04:39:35;;;;;;;3.87;3.57;;;;;;;13.19;nan;95808.03;4968156;28;20212;-63
2023/08/03 04:42:03;;;;;;;3.77;3.47;;;;;;;13.24;nan;95810.78;4963729;28;20225;-61
2023/08/03 04:44:31;;;;;;;3.43;3.13;;;;;;;13.30;nan;95801.84;4990090;28;20226;-61
2023/08/03 04:46:58;;;;;;;4.83;3.40;;;;;;;13.33;nan;95808.56;4995653;28;20209;-56
2023/08/03 04:49:26;;;;;;;5.87;3.60;;;;;;;13.36;nan;95797.47;4995776;28;20264;-59
2023/08/03 04:51:55;;;;;;;5.20;3.73;;;;;;;13.52;nan;95803.91;4993800;28;20251;-62
2023/08/03 04:54:23;;;;;;;4.40;3.50;;;;;;;13.50;nan;95798.03;4997211;28;20613;-61
2023/08/03 04:56:51;;;;;;;3.60;3.30;;;;;;;13.64;nan;95795.09;4996649;28;20208;-61
2023/08/03 04:59:20;;;;;;;5.83;3.33;;;;;;;13.70;nan;95791.47;4999116;28;20816;-64
2023/08/03 05:01:47;;;;;;;7.67;3.37;;;;;;;13.72;nan;95787.53;4994893;28;20240;-62
2023/08/03 05:04:16;;;;;;;4.63;3.23;;;;;;;13.81;nan;95781.81;4992011;28;20214;-63
2023/08/03 05:06:43;;;;;;;5.47;4.03;;;;;;;13.89;nan;95781.41;4995313;28;20210;-62
2023/08/03 05:09:13;;;;;;;3.83;3.47;;;;;;;14.00;nan;95782.41;4996542;28;20267;-62
2023/08/03 05:11:41;;;;;;;3.47;3.27;;;;;;;14.13;nan;95783.97;4821675;28;20320;-63
2023/08/03 05:14:08;;;;;;;4.80;4.33;;;;;;;14.17;nan;95791.22;4994783;28;20221;-62
2023/08/03 05:16:36;;;;;;;4.17;2.93;;;;;;;14.25;nan;95778.56;4990030;28;20677;-61
2023/08/03 05:19:04;;;;;;;3.57;3.27;;;;;;;14.31;nan;95791.72;5001044;28;20201;-64
2023/08/03 05:21:32;;;;;;;4.83;3.63;;;;;;;14.40;nan;95784.13;4992033;28;20225;-63
2023/08/03 05:23:59;;;;;;;6.93;3.57;;;;;;;14.39;nan;95787.84;4996691;28;20693;-62
2023/08/03 05:26:32;;;;;;;5.93;3.30;;;;;;;14.51;nan;95785.09;4947760;28;20217;-61
2023/08/03 05:28:59;;;;;;;3.63;2.77;;;;;;;14.56;nan;95792.34;4997966;28;20676;-60
2023/08/03 05:31:27;;;;;;;4.97;3.60;;;;;;;14.64;nan;95794.63;4995274;28;20237;-62
2023/08/03 05:33:55;;;;;;;4.13;3.13;;;;;;;14.69;nan;95800.03;4996312;28;20205;-60
2023/08/03 05:36:24;;;;;;;3.73;3.30;;;;;;;14.66;nan;95776.53;4990919;28;20243;-60
2023/08/03 05:38:52;;;;;;;3.53;3.00;;;;;;;14.92;nan;95798.22;4997721;28;20197;-63
2023/08/03 05:41:22;;;;;;;5.40;3.10;;;;;;;15.04;nan;95801.63;4872473;28;20241;-63
2023/08/03 05:43:51;;;;;;;4.67;3.13;;;;;;;15.22;nan;95794.34;4998376;28;20193;-62
2023/08/03 05:46:19;;;;;;;4.80;3.50;;;;;;;15.25;nan;95801.84;4993003;28;20798;-62
2023/08/03 05:48:52;;;;;;;5.40;2.90;;;;;;;15.35;nan;95795.84;4996469;28;20278;-60
2023/08/03 05:51:24;;;;;;;3.70;3.30;;;;;;;15.43;nan;95794.63;4992627;28;20213;-62
2023/08/03 05:53:53;;;;;;;3.70;2.80;;;;;;;15.55;nan;95792.59;4998653;28;20213;-61
2023/08/03 05:56:21;;;;;;;6.00;3.33;;;;;;;15.63;nan;95794.84;4992742;28;20210;-62
2023/08/03 05:58:49;;;;;;;3.27;2.57;;;;;;;15.72;nan;95778.34;4996689;28;20699;-60
2023/08/03 06:01:21;;;;;;;6.83;3.10;;;;;;;15.89;nan;95783.63;4946234;28;20221;-62
2023/08/03 06:03:51;;;;;;;2.73;2.13;;;;;;;16.01;nan;95776.28;4997883;28;20607;-61
2023/08/03 06:06:20;;;;;;;4.37;2.20;;;;;;;15.96;nan;95759.41;4994945;28;20212;-60
2023/08/03 06:08:51;;;;;;;3.07;2.17;;;;;;;16.00;nan;95764.00;4996154;28;20232;-61
2023/08/03 06:11:20;;;;;;;4.53;2.40;;;;;;;16.18;nan;95762.81;4995740;28;20209;-62
2023/08/03 06:13:52;;;;;;;2.93;2.20;;;;;;;16.25;nan;95781.28;4999846;28;20313;-62
2023/08/03 06:16:22;;;;;;;3.70;2.60;;;;;;;16.37;nan;95781.13;4873292;28;20214;-62
2023/08/03 06:18:52;;;;;;;2.77;2.10;;;;;;;16.54;nan;95783.66;4997809;28;20197;-62
2023/08/03 06:21:20;;;;;;;2.80;2.60;;;;;;;16.64;nan;95777.56;4991809;28;20515;-60
2023/08/03 06:23:49;;;;;;;3.20;2.20;;;;;;;16.60;nan;95781.81;4992972;28;20205;-62
2023/08/03 06:26:19;;;;;;;3.60;2.40;;;;;;;16.82;nan;95780.88;4996308;28;20224;-60
2023/08/03 06:28:49;;;;;;;5.33;2.40;;;;;;;16.88;nan;95786.00;4998076;28;20207;-61
2023/08/03 06:31:18;;;;;;;2.37;2.13;;;;;;;16.81;nan;95771.25;4995409;28;20224;-62
2023/08/03 06:33:48;;;;;;;3.43;2.17;;;;;;;16.99;nan;95778.88;4996968;28;20213;-61
2023/08/03 06:36:17;;;;;;;3.40;2.30;;;;;;;17.16;nan;95775.22;4943298;28;20732;-59
2023/08/03 06:38:45;;;;;;;3.60;2.57;;;;;;;17.17;nan;95777.63;4992215;28;20850;-63
2023/08/03 06:41:13;;;;;;;1.70;1.60;;;;;;;16.88;nan;95782.53;4963243;28;20228;-60
2023/08/03 06:43:41;;;;;;;3.40;2.50;;;;;;;16.92;nan;95792.44;4998741;28;20580;-61
2023/08/03 06:46:09;;;;;;;7.80;2.10;;;;;;;17.07;nan;95796.31;4990638;28;20642;-61
2023/08/03 06:48:37;;;;;;;3.13;1.87;;;;;;;17.36;nan;95791.38;4998141;28;20205;-63
2023/08/03 06:51:06;;;;;;;5.03;2.17;;;;;;;17.33;nan;95793.75;4873581;28;20209;-62
2023/08/03 06:53:34;;;;;;;4.83;2.60;;;;;;;17.15;nan;95795.00;4996668;28;20220;-62
2023/08/03 06:56:03;;;;;;;3.17;2.13;;;;;;;17.25;nan;95800.44;4990241;28;20705;-61
2023/08/03 06:58:30;;;;;;;3.83;2.33;;;;;;;17.39;nan;95798.06;4994550;28;20217;-63
2023/08/03 07:00:59;;;;;;;2.90;2.00;;;;;;;17.40;nan;95796.19;4993613;28;20197;-63
2023/08/03 07:03:27;;;;;;;3.00;2.23;;;;;;;17.55;nan;95806.16;4997509;28;20294;-62
2023/08/03 07:05:54;;;;;;;4.27;1.97;;;;;;;17.87;nan;95799.81;4943125;28;20220;-62
2023/08/03 07:08:23;;;;;;;3.67;2.10;;;;;;;18.08;nan;95803.38;4992704;28;20667;-62
2023/08/03 07:10:51;;;;;;;3.77;2.73;;;;;;;18.03;nan;95804.16;4991658;28;20228;-62
2023/08/03 07:13:19;;;;;;;3.20;1.43;;;;;;;18.10;nan;95795.88;4995726;28;20225;-62
2023/08/03 07:15:46;;;;;;;5.13;2.00;;;;;;;17.94;nan;95800.38;4989880;28;20217;-63
2023/08/03 07:18:14;;;;;;;2.57;1.40;;;;;;;17.97;nan;95802.53;4996924;28;20209;-64
2023/08/03 07:20:42;;;;;;;2.63;1.67;;;;;;;18.08;nan;95808.75;4991246;28;20402;-65
2023/08/03 07:23:10;;;;;;;2.23;1.23;;;;;;;18.14;nan;95812.22;4838417;28;20243;-64
2023/08/03 07:25:39;;;;;;;5.60;1.40;;;;;;;18.08;nan;95806.06;4992851;28;20213;-63
2023/08/03 07:28:07;;;;;;;1.70;0.93;;;;;;;18.03;nan;95806.06;4926754;28;20224;-64
2023/08/03 07:30:36;;;;;;;4.87;1.60;;;;;;;18.13;nan;95819.47;4996614;28;20664;-61
2023/08/03 07:33:04;;;;;;;3.67;1.23;;;;;;;18.22;nan;95809.81;4992416;28;20770;-63
2023/08/03 07:35:31;;;;;;;2.73;1.80;;;;;;;18.29;nan;95808.75;4994305;28;20213;-62
2023/08/03 07:37:59;;;;;;;3.50;1.60;;;;;;;18.14;nan;95815.72;4942931;28;20668;-63
2023/08/03 07:40:27;;;;;;;1.90;1.40;;;;;;;18.08;nan;95814.88;4995424;28;21390;-64
2023/08/03 07:42:56;;;;;;;3.23;1.10;;;;;;;17.98;nan;95816.72;4992607;28;20227;-65
2023/08/03 07:45:23;;;;;;;2.40;1.13;;;;;;;18.19;nan;95817.59;4991554;28;20647;-65
2023/08/03 07:47:54;;;;;;;0.80;0.80;;;;;;;18.34;nan;95825.66;4928472;28;20212;-65
2023/08/03 07:50:22;;;;;;;1.73;1.07;;;;;;;18.45;nan;95818.41;4993130;28;20225;-65
2023/08/03 07:52:49;;;;;;;1.93;1.13;;;;;;;18.64;nan;95816.00;4861683;28;20255;-66
2023/08/03 07:55:17;;;;;;;2.80;2.23;;;;;;;18.60;nan;95808.75;4997121;28;20224;-65
2023/08/03 07:57:45;;;;;;;1.00;0.90;;;;;;;18.65;nan;95822.97;4990376;28;20201;-65
2023/08/03 08:00:15;;;;;;;7.00;2.10;;;;;;;18.80;nan;95829.41;4993338;28;20214;-65
2023/08/03 08:02:43;;;;;;;2.17;0.83;;;;;;;18.93;nan;95818.09;4986981;28;20252;-65
2023/08/03 08:05:11;;;;;;;3.70;1.37;;;;;;;19.30;nan;95832.28;4990814;28;20287;-66
2023/08/03 08:07:39;;;;;;;2.30;0.90;;;;;;;19.24;nan;95828.78;4992160;28;20201;-65
2023/08/03 08:10:07;;;;;;;2.77;0.80;;;;;;;19.17;nan;95832.88;4997056;28;20586;-66
2023/08/03 08:12:35;;;;;;;1.13;0.70;;;;;;;19.29;nan;95830.69;4988356;28;20680;-66
2023/08/03 08:15:04;;;;;;;1.73;1.00;;;;;;;19.38;nan;95834.41;4995063;28;20222;-65
2023/08/03 08:17:33;;;;;;;2.87;0.93;;;;;;;19.37;nan;95843.53;4989172;28;20267;-66
2023/08/03 08:20:01;;;;;;;4.80;1.17;;;;;;;19.30;nan;95845.72;4999991;28;20197;-64
2023/08/03 08:22:29;;;;;;;2.03;0.83;;;;;;;19.32;nan;95840.88;4995257;28;20317;-66
2023/08/03 08:24:56;;;;;;;3.03;1.10;;;;;;;19.53;nan;95838.91;4994518;28;20216;-65
2023/08/03 08:27:24;;;;;;;1.40;0.60;;;;;;;19.67;nan;95828.38;4876921;28;20229;-65
2023/08/03 08:29:52;;;;;;;1.73;0.90;;;;;;;19.56;nan;95836.75;5000101;28;20215;-66
2023/08/03 08:32:20;;;;;;;0.70;0.60;;;;;;;19.66;nan;95801.78;4996428;28;20523;-65
2023/08/03 08:34:49;;;;;;;1.57;0.87;;;;;;;19.02;nan;95845.22;4995893;28;20208;-65
2023/08/03 08:37:17;;;;;;;4.73;1.23;;;;;;;18.81;nan;95857.81;4994018;28;20204;-64
2023/08/03 08:39:45;;;;;;;0.77;0.77;;;;;;;19.16;nan;95858.88;4999279;28;20215;-65
2023/08/03 08:42:13;;;;;;;1.20;0.77;;;;;;;19.30;nan;95848.38;4995304;28;20228;-65
2023/08/03 08:44:41;;;;;;;2.10;0.73;;;;;;;19.43;nan;95844.34;5000335;28;20359;-65
2023/08/03 08:47:09;;;;;;;1.03;1.00;;;;;;;19.62;nan;95855.28;4995125;28;20212;-66
2023/08/03 08:49:37;;;;;;;1.73;0.60;;;;;;;19.54;nan;95853.16;4996377;28;20212;-65
2023/08/03 08:52:10;;;;;;;2.37;0.80;;;;;;;19.90;nan;95850.34;4992906;28;20716;-65
2023/08/03 08:54:38;;;;;;;2.40;1.03;;;;;;;19.81;nan;95847.41;4997354;28;20940;-63
2023/08/03 08:57:09;;;;;;;2.30;1.20;;;;;;;19.42;nan;95861.53;4995953;28;20213;-65
2023/08/03 08:59:42;;;;;;;3.57;1.90;;;;;;;19.49;nan;95866.59;4998777;28;20206;-66
2023/08/03 09:02:11;;;;;;;3.10;0.80;;;;;;;19.41;nan;95881.41;4867872;28;20889;-65
2023/08/03 09:04:39;;;;;;;2.47;0.80;;;;;;;19.25;nan;95864.53;4998754;28;20233;-67
2023/08/03 09:07:07;;;;;;;0.77;0.70;;;;;;;19.24;nan;95881.69;4989912;28;20897;-66
2023/08/03 09:09:37;;;;;;;1.00;0.70;;;;;;;19.25;nan;95856.47;5000052;28;20570;-65
2023/08/03 09:12:05;;;;;;;0.87;0.73;;;;;;;19.45;nan;95876.28;4994308;28;20239;-64
2023/08/03 09:14:49;;;;;;;4.97;0.90;;;;;;;19.69;nan;95870.28;4997930;28;20198;-65
2023/08/03 09:17:17;;;;;;;1.37;1.00;;;;;;;19.92;nan;95868.88;4995972;28;20235;-66
2023/08/03 09:19:46;;;;;;;1.40;1.13;;;;;;;19.93;nan;95865.09;4997906;28;20201;-66
2023/08/03 09:22:16;;;;;;;2.20;1.10;;;;;;;20.02;nan;95868.81;4996522;28;20962;-66
2023/08/03 09:25:00;;;;;;;5.40;1.40;;;;;;;20.20;nan;95883.50;4994691;28;20284;-65
2023/08/03 09:27:28;;;;;;;1.10;1.00;;;;;;;20.18;nan;95872.22;4991887;28;20214;-64
2023/08/03 09:30:02;;;;;;;0.97;0.73;;;;;;;20.27;nan;95868.94;5001862;28;20315;-65
2023/08/03 09:32:34;;;;;;;0.80;0.70;;;;;;;20.65;nan;95874.63;4871580;28;20260;-66
2023/08/03 09:35:02;;;;;;;1.17;0.97;;;;;;;20.72;nan;95868.91;4996866;28;20541;-65
2023/08/03 09:37:34;;;;;;;3.40;0.97;;;;;;;20.95;nan;95889.75;4993193;28;20212;-65
2023/08/03 09:40:07;;;;;;;1.83;0.80;;;;;;;20.66;nan;95879.72;4996844;28;20336;-64
2023/08/03 09:42:37;;;;;;;0.83;0.80;;;;;;;20.37;nan;95885.03;4994332;28;20580;-65
2023/08/03 09:45:06;;;;;;;0.40;0.40;;;;;;;20.09;nan;95885.47;4992292;28;20209;-65
2023/08/03 09:47:57;;;;;;;1.20;0.73;;;;;;;20.20;nan;95901.53;4994141;28;20211;-66
2023/08/03 09:50:26;;;;;;;0.50;0.50;;;;;;;20.45;nan;95903.25;4994339;28;20205;-65
2023/08/03 09:52:55;;;;;;;1.33;0.80;;;;;;;20.76;nan;95894.16;4993770;28;20275;-66
2023/08/03 09:55:28;;;;;;;1.50;0.80;;;;;;;20.68;nan;95912.53;5001125;28;20316;-66
2023/08/03 09:58:00;;;;;;;1.80;0.83;;;;;;;20.59;nan;95913.38;4996297;28;20217;-66
2023/08/03 10:00:29;;;;;;;1.53;0.73;;;;;;;20.50;nan;95900.53;4999920;28;20205;-65
2023/08/03 10:02:59;;;;;;;2.67;0.80;;;;;;;20.79;nan;95909.78;4990559;28;20229;-65
2023/08/03 10:05:28;;;;;;;2.77;0.87;;;;;;;20.89;nan;95900.81;4997648;28;20328;-66
2023/08/03 10:08:00;;;;;;;1.80;0.83;;;;;;;20.85;nan;95895.22;4868419;28;20576;-64
2023/08/03 10:10:30;;;;;;;2.90;1.40;;;;;;;20.88;nan;95918.88;4995136;28;20213;-65
2023/08/03 10:13:04;;;;;;;1.03;0.87;;;;;;;20.96;nan;95910.19;4990272;28;20243;-65
2023/08/03 10:15:32;;;;;;;2.00;0.90;;;;;;;20.91;nan;95912.13;4994232;28;20209;-65
2023/08/03 10:18:05;;;;;;;0.80;0.80;;;;;;;21.13;nan;95910.88;4992386;28;20253;-67
2023/08/03 10:20:34;;;;;;;0.83;0.70;;;;;;;20.93;nan;95912.63;4997372;28;20201;-65
2023/08/03 10:23:09;;;;;;;3.03;0.90;;;;;;;20.93;nan;95921.53;4991877;28;20225;-66
2023/08/03 10:25:55;;;;;;;1.30;0.80;;;;;;;20.88;nan;95912.69;4995781;28;20258;-68
2023/08/03 10:28:24;;;;;;;0.80;0.73;;;;;;;20.91;nan;95922.88;4995796;28;20204;-66
2023/08/03 10:31:10;;;;;;;1.53;0.73;;;;;;;20.97;nan;95919.06;4993696;28;20213;-67
2023/08/03 10:34:04;;;;;;;11.47;1.67;;;;;;;21.21;nan;95921.03;4991714;28;20205;-65
2023/08/03 10:36:38;;;;;;;1.23;1.10;;;;;;;21.22;nan;95891.13;4926711;28;26103;-64
2023/08/03 10:39:11;;;;;;;6.23;1.63;;;;;;;21.15;nan;95930.22;4963107;28;20240;-64
2023/08/03 10:41:42;;;;;;;7.30;1.43;;;;;;;21.19;nan;95929.38;4993482;28;20221;-65
2023/08/03 10:44:26;;;;;;;3.03;1.13;;;;;;;21.03;nan;95915.25;4995545;28;20552;-64
2023/08/03 10:46:56;;;;;;;6.93;1.03;;;;;;;21.01;nan;95930.88;4993582;28;20213;-64
2023/08/03 10:49:50;;;;;;;3.10;1.00;;;;;;;20.90;nan;95926.66;4998217;28;20831;-64
2023/08/03 10:52:20;;;;;;;3.77;0.70;;;;;;;20.90;nan;95940.94;4989728;28;20255;-63
2023/08/03 10:54:48;;;;;;;7.10;0.90;;;;;;;20.87;nan;95944.19;4999726;28;20217;-64
2023/08/03 10:57:19;;;;;;;1.07;0.60;;;;;;;20.97;nan;95940.59;4991955;28;20209;-64
2023/08/03 10:59:47;;;;;;;1.17;0.60;;;;;;;20.97;nan;95929.81;4998233;28;20221;-64
2023/08/03 11:02:18;;;;;;;2.87;0.97;;;;;;;21.14;nan;95926.72;4991708;28;20221;-65
2023/08/03 11:04:46;;;;;;;1.30;0.60;;;;;;;21.25;nan;95943.59;4997244;28;20209;-65
2023/08/03 11:07:17;;;;;;;2.30;0.73;;;;;;;21.19;nan;95936.66;4991348;28;20217;-65
2023/08/03 11:09:48;;;;;;;0.87;0.50;;;;;;;21.38;nan;95924.06;4993675;28;20214;-65
2023/08/03 11:12:17;;;;;;;1.07;0.73;;;;;;;21.70;nan;95940.78;4843123;28;20239;-62
2023/08/03 11:14:45;;;;;;;2.90;0.87;;;;;;;22.18;nan;95923.78;4928372;28;21215;-63
2023/08/03 11:17:14;;;;;;;1.87;0.90;;;;;;;21.86;nan;95911.75;4992711;28;20216;-64
2023/08/03 11:19:43;;;;;;;2.93;0.50;;;;;;;21.91;nan;95937.84;4994780;28;20209;-64
2023/08/03 11:22:12;;;;;;;0.50;0.50;;;;;;;22.03;nan;95923.94;4993359;28;20224;-65
2023/08/03 11:24:40;;;;;;;1.17;0.73;;;;;;;22.40;nan;95925.09;4946292;28;20244;-65
2023/08/03 11:27:07;;;;;;;1.33;0.73;;;;;;;22.22;nan;95916.69;4994204;28;20219;-65
2023/08/03 11:29:37;;;;;;;6.20;1.00;;;;;;;21.89;nan;95927.34;4975853;28;20212;-66
2023/08/03 11:32:06;;;;;;;0.83;0.70;;;;;;;22.04;nan;95922.84;4994650;28;20225;-64
2023/08/03 11:34:33;;;;;;;0.73;0.73;;;;;;;22.11;nan;95921.41;4992956;28;20204;-65
2023/08/03 11:37:01;;;;;;;0.90;0.47;;;;;;;22.23;nan;95926.41;4995441;28;20270;-63
2023/08/03 11:39:29;;;;;;;1.77;0.57;;;;;;;22.27;nan;95923.91;4991634;28;20201;-65
2023/08/03 11:41:57;;;;;;;1.70;1.17;;;;;;;22.27;nan;95922.03;4997360;28;20232;-67
2023/08/03 11:44:25;;;;;;;2.23;0.67;;;;;;;22.47;nan;95917.44;4893494;28;20955;-64
2023/08/03 11:47:05;;;;;;;2.13;0.40;;;;;;;22.90;nan;95923.84;4977181;28;20212;-65
2023/08/03 11:49:33;;;;;;;2.10;0.80;;;;;;;23.23;nan;95921.94;4994653;28;20254;-66
2023/08/03 11:52:00;;;;;;;0.50;0.40;;;;;;;23.38;nan;95912.00;4993662;28;20244;-65
2023/08/03 11:54:30;;;;;;;1.83;0.63;;;;;;;23.03;nan;95923.09;4948852;28;20217;-66
2023/08/03 11:58:07;;;;;;;1.23;0.60;;;;;;;23.24;nan;95920.03;4993598;28;20213;-66
2023/08/03 11:59:49;;;;;;;1.30;1.00;;;;;;;23.32;nan;95927.50;4991822;28;20201;-65